Time;durP1;ratioP1;P1;durP2;ratioP2;P2;SDS_P1;SDS_P2;PMS_P1;PMS_P2;Temp;Humidity;BMP_temperature;BMP_pressure;BME280_temperature;BME280_humidity;BME280_pressure;Samples;Min_cycle;Max_cycle;Signal;HPM_P1;HPM_P2
2022/05/03 00:00:18;;;;;;;6.72;2.38;;;11.10;99.90;;;;;;5114728;27;20534;-84
2022/05/03 00:02:52;;;;;;;;;;;11.20;99.90;;;;;;5114618;27;20035;-84
2022/05/03 00:05:31;;;;;;;2.58;1.80;;;11.20;99.90;;;;;;5132385;27;19915;-83
2022/05/03 00:08:19;;;;;;;2.58;1.52;;;11.10;99.90;;;;;;5113614;27;20034;-84
2022/05/03 00:11:16;;;;;;;3.03;1.60;;;11.20;99.90;;;;;;5113789;27;20446;-85
2022/05/03 00:13:56;;;;;;;2.83;1.55;;;11.10;99.90;;;;;;5114506;27;20027;-84
2022/05/03 00:16:23;;;;;;;4.53;2.42;;;11.10;99.90;;;;;;5132762;27;20023;-84
2022/05/03 00:18:49;;;;;;;3.05;1.92;;;11.20;99.90;;;;;;5132631;27;20113;-84
2022/05/03 00:21:15;;;;;;;3.85;1.88;;;11.20;99.90;;;;;;5132336;27;20020;-84
2022/05/03 00:23:41;;;;;;;;;;;11.20;99.90;;;;;;5113955;27;20065;-84
2022/05/03 00:26:07;;;;;;;4.15;1.88;;;11.20;99.90;;;;;;5132762;27;19956;-84
2022/05/03 00:28:33;;;;;;;;;;;11.20;99.90;;;;;;5115429;27;20123;-84
2022/05/03 00:30:58;;;;;;;6.05;1.88;;;11.20;99.90;;;;;;5112877;27;20451;-84
2022/05/03 00:33:24;;;;;;;;;;;11.20;99.90;;;;;;5114602;27;20035;-84
2022/05/03 00:35:50;;;;;;;5.65;2.20;;;11.20;99.90;;;;;;5114293;27;19939;-83
2022/05/03 00:38:16;;;;;;;;;;;11.20;99.90;;;;;;5131767;27;20027;-84
2022/05/03 00:40:50;;;;;;;5.18;2.55;;;11.30;99.90;;;;;;5132360;27;20014;-83
2022/05/03 00:43:36;;;;;;;6.97;2.47;;;11.20;99.90;;;;;;5113703;27;20076;-83
2022/05/03 00:46:10;;;;;;;8.13;3.85;;;11.20;99.90;;;;;;5131845;27;20023;-84
2022/05/03 00:48:53;;;;;;;7.65;2.05;;;11.20;99.90;;;;;;5114237;27;20568;-84
2022/05/03 00:51:28;;;;;;;4.78;2.35;;;11.30;99.90;;;;;;5113222;27;20015;-83
2022/05/03 00:54:00;;;;;;;5.53;2.20;;;11.30;99.90;;;;;;5131195;27;20030;-84
2022/05/03 00:57:03;;;;;;;4.20;2.22;;;11.30;99.90;;;;;;5113688;27;20035;-84
2022/05/03 01:00:06;;;;;;;4.80;2.33;;;11.40;99.90;;;;;;5131335;27;20154;-84
2022/05/03 01:03:07;;;;;;;4.70;2.67;;;11.40;99.90;;;;;;5097644;27;20030;-83
2022/05/03 01:05:45;;;;;;;12.45;3.58;;;11.50;99.90;;;;;;5127052;27;20071;-84
2022/05/03 01:08:36;;;;;;;9.23;3.55;;;11.50;99.90;;;;;;5113221;27;20109;-84
2022/05/03 01:11:25;;;;;;;6.00;2.90;;;11.50;99.90;;;;;;5113130;27;20029;-83
2022/05/03 01:14:23;;;;;;;4.55;2.20;;;11.60;99.90;;;;;;5131506;27;20023;-83
2022/05/03 01:17:14;;;;;;;3.92;2.15;;;11.60;99.90;;;;;;5109239;27;20039;-84
2022/05/03 01:20:03;;;;;;;5.47;3.35;;;11.60;99.90;;;;;;5131355;27;20033;-84
2022/05/03 01:22:41;;;;;;;9.88;3.95;;;11.60;99.90;;;;;;5131089;27;20099;-84
2022/05/03 01:25:38;;;;;;;12.05;5.72;;;11.70;99.90;;;;;;5131388;27;20039;-82
2022/05/03 01:28:11;;;;;;;12.75;6.15;;;11.60;99.90;;;;;;5104144;27;20748;-85
2022/05/03 01:30:37;;;;;;;12.57;5.00;;;11.70;99.90;;;;;;5113183;27;20098;-83
2022/05/03 01:33:06;;;;;;;;;;;11.60;99.90;;;;;;5113330;27;20428;-84
2022/05/03 01:35:38;;;;;;;4.95;2.80;;;11.60;99.90;;;;;;5112913;27;20143;-84
2022/05/03 01:38:13;;;;;;;4.82;2.88;;;11.60;99.90;;;;;;5111998;27;20023;-84
2022/05/03 01:41:10;;;;;;;7.20;2.78;;;11.60;99.90;;;;;;5113052;28;20030;-84
2022/05/03 01:43:39;;;;;;;4.47;2.55;;;11.60;99.90;;;;;;5112501;28;20112;-84
2022/05/03 01:46:18;;;;;;;5.43;2.60;;;11.60;99.90;;;;;;5127701;28;20026;-85
2022/05/03 01:51:45;;;;;;;4.40;2.50;;;11.60;99.90;;;;;;5131000;28;20026;-84
2022/05/03 01:54:31;;;;;;;4.32;2.72;;;11.60;99.90;;;;;;5112805;28;20023;-84
2022/05/03 01:57:31;;;;;;;3.58;1.90;;;11.60;99.90;;;;;;5112400;28;20043;-84
2022/05/03 02:00:09;;;;;;;6.47;2.28;;;11.70;99.90;;;;;;5112302;28;20039;-84
2022/05/03 02:02:51;;;;;;;5.78;1.65;;;11.70;99.90;;;;;;5131044;28;20031;-84
2022/05/03 02:05:42;;;;;;;3.55;1.80;;;11.80;99.90;;;;;;5111913;28;20129;-83
2022/05/03 02:08:13;;;;;;;2.63;1.50;;;11.80;99.90;;;;;;5130690;28;20027;-84
2022/05/03 02:11:01;;;;;;;2.92;1.58;;;11.80;99.90;;;;;;5131261;28;20028;-83
2022/05/03 02:14:43;;;;;;;9.73;2.58;;;11.90;99.90;;;;;;5112684;28;20042;-84
2022/05/03 02:16:27;;;;;;;5.15;1.52;;;11.90;99.90;;;;;;5130410;27;20032;-84
2022/05/03 02:19:20;;;;;;;4.63;1.90;;;11.90;99.90;;;;;;5112665;28;20044;-84
2022/05/03 02:21:57;;;;;;;2.92;1.70;;;11.90;99.90;;;;;;5116152;27;20043;-84
2022/05/03 02:24:37;;;;;;;3.85;2.10;;;12.00;99.90;;;;;;5112309;28;20079;-84
2022/05/03 02:27:09;;;;;;;4.57;1.73;;;12.10;99.90;;;;;;5130749;28;20125;-84
2022/05/03 02:29:46;;;;;;;4.00;2.03;;;12.20;99.90;;;;;;5112260;28;20023;-84
2022/05/03 02:32:38;;;;;;;5.00;1.75;;;12.30;99.90;;;;;;5130383;28;20030;-84
2022/05/03 02:35:06;;;;;;;2.40;1.40;;;12.30;99.90;;;;;;5114898;27;20062;-84
2022/05/03 02:38:01;;;;;;;3.25;1.80;;;12.30;99.90;;;;;;5116366;27;20011;-84
2022/05/03 02:40:27;;;;;;;3.25;2.40;;;12.30;99.90;;;;;;5113680;27;20035;-85
2022/05/03 02:42:56;;;;;;;5.30;3.63;;;12.20;99.90;;;;;;5134529;27;20015;-84
2022/05/03 02:45:21;;;;;;;4.43;2.70;;;12.20;99.90;;;;;;5133920;27;20411;-84
2022/05/03 02:48:05;;;;;;;;;;;12.10;99.90;;;;;;5116976;27;20023;-84
2022/05/03 02:50:48;;;;;;;6.90;2.50;;;12.10;99.90;;;;;;5134587;27;19903;-84
2022/05/03 02:53:23;;;;;;;4.85;2.63;;;12.00;99.90;;;;;;5133887;27;20424;-84
2022/05/03 02:55:54;;;;;;;3.35;2.15;;;12.00;99.90;;;;;;5115407;27;20019;-84
2022/05/03 02:58:56;;;;;;;4.38;2.03;;;11.90;99.90;;;;;;5115664;27;20118;-84
2022/05/03 03:04:23;;;;;;;4.15;2.20;;;11.90;99.90;;;;;;5136921;27;20097;-84
2022/05/03 03:06:54;;;;;;;5.95;2.63;;;11.90;99.90;;;;;;5115522;27;20031;-84
2022/05/03 03:09:29;;;;;;;4.57;2.33;;;11.90;99.90;;;;;;5133641;27;20084;-84
2022/05/03 03:12:21;;;;;;;3.67;2.50;;;11.80;99.90;;;;;;5115338;27;20096;-84
2022/05/03 03:14:48;;;;;;;7.72;2.95;;;11.80;99.90;;;;;;5114996;27;20031;-84
2022/05/03 03:17:23;;;;;;;5.97;3.17;;;11.80;99.90;;;;;;5115143;27;20015;-83
2022/05/03 03:20:07;;;;;;;4.68;2.65;;;11.70;99.90;;;;;;5133578;27;20543;-84
2022/05/03 03:22:42;;;;;;;4.40;2.28;;;11.70;99.90;;;;;;5115404;27;20118;-84
2022/05/03 03:25:10;;;;;;;5.50;2.00;;;11.70;99.90;;;;;;5114845;27;20426;-84
2022/05/03 03:27:38;;;;;;;5.00;2.28;;;11.70;99.90;;;;;;5114844;27;20055;-83
2022/05/03 03:30:07;;;;;;;6.68;2.25;;;11.70;99.90;;;;;;5115204;27;20106;-84
2022/05/03 03:32:36;;;;;;;7.00;1.65;;;11.80;99.90;;;;;;5115280;27;20134;-83
2022/05/03 03:35:02;;;;;;;5.13;2.17;;;11.80;99.90;;;;;;5133344;27;20483;-83
2022/05/03 03:37:30;;;;;;;3.58;1.75;;;11.90;99.90;;;;;;5134151;27;20433;-84
2022/05/03 03:39:56;;;;;;;2.65;1.92;;;11.90;99.90;;;;;;5133281;27;20027;-83
2022/05/03 03:42:22;;;;;;;4.85;1.77;;;11.90;99.90;;;;;;5114902;27;20369;-83
2022/05/03 03:44:48;;;;;;;;;;;11.90;99.90;;;;;;5115237;27;20061;-83
2022/05/03 03:47:15;;;;;;;4.28;1.77;;;11.90;99.90;;;;;;5114915;27;19908;-83
2022/05/03 03:49:41;;;;;;;6.82;2.33;;;12.00;99.90;;;;;;5132703;27;20087;-83
2022/05/03 03:52:08;;;;;;;4.95;2.22;;;12.00;99.90;;;;;;5132466;27;20106;-84
2022/05/03 03:54:40;;;;;;;6.00;2.33;;;12.00;99.90;;;;;;5114482;27;20023;-83
2022/05/03 03:57:07;;;;;;;13.98;2.25;;;12.10;99.90;;;;;;5132970;27;20063;-83
2022/05/03 03:59:33;;;;;;;8.43;2.10;;;12.20;99.90;;;;;;5114037;27;20558;-84
2022/05/03 04:02:00;;;;;;;6.22;2.63;;;12.20;99.90;;;;;;5132232;27;20784;-84
2022/05/03 04:04:31;;;;;;;5.00;1.83;;;12.20;99.90;;;;;;5133383;27;20074;-84
2022/05/03 04:06:58;;;;;;;2.80;1.48;;;12.30;99.90;;;;;;5132999;27;20024;-84
2022/05/03 04:09:24;;;;;;;3.53;1.90;;;12.40;99.90;;;;;;5113211;27;20035;-83
2022/05/03 04:11:50;;;;;;;;;;;12.60;99.90;;;;;;5114121;27;20026;-83
2022/05/03 04:14:16;;;;;;;9.73;4.43;;;12.90;99.90;;;;;;5114120;27;19949;-84
2022/05/03 04:16:41;;;;;;;;;;;13.10;99.90;;;;;;5114857;27;20027;-84
2022/05/03 04:19:07;;;;;;;3.67;1.40;;;13.20;99.90;;;;;;5113677;27;19907;-83
2022/05/03 04:21:34;;;;;;;4.90;1.70;;;13.40;99.90;;;;;;5110799;27;20023;-84
2022/05/03 04:23:59;;;;;;;3.95;1.73;;;13.50;99.80;;;;;;5106320;27;20031;-85
2022/05/03 04:26:26;;;;;;;;;;;13.70;99.70;;;;;;5096643;27;20035;-85
2022/05/03 04:28:59;;;;;;;5.27;2.10;;;13.80;99.10;;;;;;5103936;27;19929;-84
2022/05/03 04:31:26;;;;;;;4.93;2.67;;;14.00;99.20;;;;;;5129565;27;20035;-84
2022/05/03 04:33:52;;;;;;;5.68;2.40;;;14.10;99.90;;;;;;5111598;27;20467;-84
2022/05/03 04:36:18;;;;;;;6.18;2.60;;;14.20;99.90;;;;;;5111576;27;20111;-84
2022/05/03 04:38:43;;;;;;;;;;;14.30;99.90;;;;;;5113215;27;20174;-85
2022/05/03 04:41:09;;;;;;;9.48;2.15;;;14.40;99.90;;;;;;5127012;27;19941;-87
2022/05/03 04:43:34;;;;;;;;;;;14.60;99.90;;;;;;5104640;28;20027;-86
2022/05/03 04:46:00;;;;;;;6.10;1.52;;;14.70;98.70;;;;;;5109062;28;19908;-86
2022/05/03 04:48:26;;;;;;;4.75;1.70;;;14.80;98.80;;;;;;5101509;27;20019;-88
2022/05/03 04:50:51;;;;;;;;;;;14.80;96.40;;;;;;5114639;27;20212;-88
2022/05/03 04:53:17;;;;;;;5.47;2.28;;;14.80;99.90;;;;;;5112447;27;20153;-88
2022/05/03 04:55:43;;;;;;;;;;;14.80;99.90;;;;;;5112595;27;20401;-89
2022/05/03 04:58:09;;;;;;;5.55;2.28;;;14.90;99.90;;;;;;5111866;27;19910;-88
2022/05/03 05:00:35;;;;;;;5.32;2.15;;;15.10;99.90;;;;;;5111840;27;20507;-88
2022/05/03 05:03:01;;;;;;;7.78;2.78;;;15.50;99.90;;;;;;5112167;27;20390;-89
2022/05/03 05:05:27;;;;;;;;;;;15.90;99.90;;;;;;5112028;27;20046;-89
2022/05/03 05:07:53;;;;;;;11.27;4.00;;;16.20;99.20;;;;;;5112212;27;19956;-89
2022/05/03 05:10:24;;;;;;;13.68;3.95;;;16.60;97.80;;;;;;5111553;27;20031;-88
2022/05/03 05:13:02;;;;;;;7.03;3.05;;;16.80;93.70;;;;;;5112168;27;20035;-88
2022/05/03 05:15:28;;;;;;;8.30;3.13;;;16.90;91.30;;;;;;5111669;27;20071;-89
2022/05/03 05:17:58;;;;;;;8.00;2.65;;;16.90;92.00;;;;;;5113017;27;20234;-88
2022/05/03 05:20:25;;;;;;;10.15;2.70;;;16.80;91.80;;;;;;5111786;27;20025;-88
2022/05/03 05:22:51;;;;;;;12.20;2.50;;;16.60;91.80;;;;;;5111704;27;20548;-88
2022/05/03 05:25:18;;;;;;;15.18;2.90;;;16.70;92.50;;;;;;5110795;27;20041;-89
2022/05/03 05:27:44;;;;;;;6.82;1.73;;;16.90;93.10;;;;;;5111680;27;20514;-89
2022/05/03 05:30:10;;;;;;;9.82;2.05;;;17.20;91.20;;;;;;5110951;27;20023;-89
2022/05/03 05:32:37;;;;;;;10.90;2.13;;;17.50;83.90;;;;;;5110749;28;20019;-89
2022/05/03 05:35:06;;;;;;;8.27;1.60;;;17.90;76.30;;;;;;5111147;28;20031;-90
2022/05/03 05:37:32;;;;;;;2.50;1.42;;;18.10;71.20;;;;;;5111363;28;20058;-88
2022/05/03 05:39:58;;;;;;;8.68;2.17;;;18.30;69.60;;;;;;5111190;27;20031;-89
2022/05/03 05:42:25;;;;;;;5.55;1.73;;;18.80;67.30;;;;;;5108502;28;20030;-87
2022/05/03 05:44:51;;;;;;;4.35;2.45;;;19.40;62.10;;;;;;5129239;28;20055;-87
2022/05/03 05:47:18;;;;;;;3.83;1.65;;;20.20;56.60;;;;;;5110319;28;20047;-88
2022/05/03 05:49:43;;;;;;;4.18;1.60;;;21.00;52.80;;;;;;5110432;28;20386;-86
2022/05/03 05:54:53;;;;;;;9.07;1.45;;;22.30;47.20;;;;;;5129165;28;20046;-86
2022/05/03 05:57:19;;;;;;;6.15;1.48;;;23.00;42.90;;;;;;5128222;28;20476;-86
2022/05/03 05:59:45;;;;;;;2.90;1.58;;;23.20;37.00;;;;;;5092659;28;20048;-87
2022/05/03 06:02:10;;;;;;;3.80;1.80;;;24.30;36.20;;;;;;5083960;28;20039;-86
2022/05/03 06:04:36;;;;;;;3.47;1.75;;;25.20;35.40;;;;;;5084641;28;20074;-85
2022/05/03 06:07:02;;;;;;;4.00;1.20;;;26.00;34.20;;;;;;5085303;28;20115;-85
2022/05/03 06:09:27;;;;;;;4.13;1.67;;;26.60;32.80;;;;;;5087704;28;20047;-86
2022/05/03 06:11:53;;;;;;;4.30;1.42;;;27.10;31.50;;;;;;5089732;28;20056;-85
2022/05/03 06:14:19;;;;;;;3.45;1.73;;;27.70;30.00;;;;;;5089734;28;20031;-85
2022/05/03 06:16:53;;;;;;;4.15;1.88;;;27.90;29.00;;;;;;5087088;28;20028;-85
2022/05/03 06:19:19;;;;;;;7.80;1.15;;;28.40;28.20;;;;;;5089173;28;20024;-87
2022/05/03 06:21:45;;;;;;;4.20;1.40;;;28.80;27.90;;;;;;5092404;28;20470;-87
2022/05/03 06:24:11;;;;;;;5.78;1.08;;;29.10;27.50;;;;;;5092618;28;20038;-86
2022/05/03 06:26:37;;;;;;;2.58;1.55;;;29.30;26.90;;;;;;5093481;28;20020;-89
2022/05/03 06:29:05;;;;;;;4.60;1.30;;;29.60;25.60;;;;;;5093397;28;20028;-89
2022/05/03 06:31:31;;;;;;;3.15;1.30;;;29.80;25.60;;;;;;5093943;28;20028;-90
2022/05/03 06:33:56;;;;;;;5.05;1.83;;;30.00;25.90;;;;;;5093341;28;20054;-90
2022/05/03 06:36:22;;;;;;;5.53;1.92;;;30.50;25.80;;;;;;5093609;28;20032;-89
2022/05/03 06:38:48;;;;;;;3.03;1.85;;;30.70;25.00;;;;;;5093544;28;20019;-88
2022/05/03 06:41:15;;;;;;;4.07;1.40;;;30.90;24.10;;;;;;5093205;28;20024;-89
2022/05/03 06:43:41;;;;;;;5.13;1.23;;;31.20;23.90;;;;;;5093607;28;20526;-89
2022/05/03 06:46:06;;;;;;;2.65;1.23;;;31.10;23.30;;;;;;5093855;28;20039;-87
2022/05/03 06:48:32;;;;;;;1.75;1.10;;;30.80;23.30;;;;;;5092888;28;20020;-89
2022/05/03 06:50:58;;;;;;;1.63;1.35;;;30.70;23.40;;;;;;5093542;28;20028;-89
2022/05/03 06:53:23;;;;;;;1.77;1.30;;;30.50;23.40;;;;;;5093631;28;20396;-90
2022/05/03 06:55:49;;;;;;;5.80;1.50;;;30.40;23.20;;;;;;5093657;28;20031;-89
2022/05/03 06:58:15;;;;;;;5.53;1.23;;;30.20;23.30;;;;;;5093320;27;20032;-89
2022/05/03 07:00:40;;;;;;;5.88;1.40;;;30.40;23.40;;;;;;5117360;27;20395;-88
2022/05/03 07:03:06;;;;;;;1.83;1.00;;;30.10;23.70;;;;;;5115851;27;20482;-85
2022/05/03 07:05:32;;;;;;;4.68;1.52;;;30.10;23.30;;;;;;5114610;27;20035;-85
2022/05/03 07:07:59;;;;;;;4.90;1.42;;;30.10;23.30;;;;;;5114759;27;20022;-85
2022/05/03 07:10:25;;;;;;;5.50;1.45;;;30.30;23.60;;;;;;5114532;27;20137;-84
2022/05/03 07:12:51;;;;;;;4.95;1.38;;;30.20;23.70;;;;;;5113085;27;20136;-86
2022/05/03 07:15:18;;;;;;;7.57;1.52;;;30.30;23.60;;;;;;5112651;27;20023;-85
2022/05/03 07:23:16;;;;;;;4.22;1.60;;;29.90;23.40;;;;;;5133628;27;20441;-87
2022/05/03 07:25:44;;;;;;;5.05;1.30;;;29.70;23.50;;;;;;5115395;27;20023;-86
2022/05/03 07:28:10;;;;;;;3.60;1.55;;;29.80;23.40;;;;;;5115522;27;20027;-86
2022/05/03 07:30:36;;;;;;;2.28;1.20;;;29.70;24.20;;;;;;5114550;27;20586;-84
2022/05/03 07:33:03;;;;;;;3.45;1.35;;;29.80;24.30;;;;;;5114082;27;20027;-84
2022/05/03 07:35:29;;;;;;;1.90;1.17;;;29.80;23.10;;;;;;5113621;27;20069;-85
2022/05/03 07:37:54;;;;;;;3.67;1.30;;;30.30;23.40;;;;;;5132505;27;20725;-84
2022/05/03 07:40:20;;;;;;;8.13;1.55;;;30.50;23.60;;;;;;5114653;27;20022;-86
2022/05/03 07:42:46;;;;;;;3.53;1.50;;;30.50;22.70;;;;;;5106645;28;20038;-90
2022/05/03 07:45:12;;;;;;;2.80;1.50;;;30.80;23.20;;;;;;5095682;28;20659;-87
2022/05/03 07:47:38;;;;;;;2.38;1.50;;;31.10;23.00;;;;;;5106000;27;20027;-86
2022/05/03 07:50:05;;;;;;;3.00;1.60;;;31.20;22.50;;;;;;5114527;27;20050;-86
2022/05/03 07:52:31;;;;;;;4.05;1.30;;;31.30;22.60;;;;;;5113875;27;20034;-85
2022/05/03 07:54:57;;;;;;;3.25;1.25;;;31.40;22.50;;;;;;5112395;27;20019;-85
2022/05/03 07:57:24;;;;;;;2.90;1.35;;;31.80;21.80;;;;;;5113294;27;20038;-86
2022/05/03 07:59:50;;;;;;;3.65;1.30;;;31.50;21.90;;;;;;5113857;27;20248;-85
2022/05/03 08:02:16;;;;;;;2.67;1.00;;;31.70;22.10;;;;;;5132958;27;20471;-87
2022/05/03 08:04:42;;;;;;;2.67;1.33;;;31.70;21.90;;;;;;5115193;27;20045;-90
2022/05/03 08:07:08;;;;;;;4.65;1.50;;;32.10;22.10;;;;;;5114514;27;20060;-84
2022/05/03 08:09:36;;;;;;;6.05;1.50;;;32.20;22.00;;;;;;5114419;27;20027;-87
2022/05/03 08:12:03;;;;;;;5.88;1.30;;;32.20;21.10;;;;;;5133746;27;20076;-86
2022/05/03 08:14:29;;;;;;;1.80;1.08;;;32.10;21.60;;;;;;5134117;27;20019;-88
2022/05/03 08:16:58;;;;;;;3.17;1.15;;;32.10;21.80;;;;;;5114291;27;20118;-86
2022/05/03 08:19:24;;;;;;;2.83;1.30;;;32.30;21.50;;;;;;5114781;27;20055;-88
2022/05/03 08:21:52;;;;;;;8.00;1.45;;;32.00;21.40;;;;;;5114293;27;20062;-86
2022/05/03 08:24:21;;;;;;;20.65;1.70;;;32.20;21.90;;;;;;5113770;27;20031;-88
2022/05/03 08:26:47;;;;;;;2.05;1.13;;;32.40;21.80;;;;;;5133065;27;20187;-88
2022/05/03 08:29:13;;;;;;;2.65;1.20;;;32.60;21.90;;;;;;5115104;27;20084;-87
2022/05/03 08:31:38;;;;;;;4.15;1.20;;;32.90;21.40;;;;;;5112717;27;20530;-85
2022/05/03 08:34:04;;;;;;;9.77;1.23;;;33.00;21.20;;;;;;5133333;27;20026;-90
2022/05/03 08:36:30;;;;;;;2.83;1.25;;;32.70;21.60;;;;;;5116126;27;20034;-90
2022/05/03 08:44:25;;;;;;;3.90;1.50;;;32.80;22.40;;;;;;5133555;27;20050;-90
2022/05/03 08:46:54;;;;;;;9.90;1.70;;;32.60;21.50;;;;;;5114886;27;20133;-91
2022/05/03 08:49:22;;;;;;;4.38;1.67;;;32.40;21.80;;;;;;5114594;27;20483;-90
2022/05/03 08:51:50;;;;;;;3.17;1.42;;;32.40;22.40;;;;;;5114801;27;20023;-89
2022/05/03 08:54:16;;;;;;;3.08;1.52;;;32.20;21.60;;;;;;5114256;27;20034;-89
2022/05/03 08:56:42;;;;;;;2.97;1.40;;;32.00;22.40;;;;;;5133309;27;20023;-88
2022/05/03 08:59:08;;;;;;;2.78;1.50;;;32.40;22.30;;;;;;5113421;27;20136;-84
2022/05/03 09:01:34;;;;;;;5.35;1.58;;;32.50;21.80;;;;;;5111716;27;20138;-84
2022/05/03 09:04:00;;;;;;;5.07;1.77;;;32.50;21.30;;;;;;5111847;27;20031;-82
2022/05/03 09:06:41;;;;;;;5.50;1.83;;;32.80;21.40;;;;;;5129589;27;20033;-85
2022/05/03 09:09:11;;;;;;;3.42;1.50;;;32.90;21.70;;;;;;5129997;27;20037;-81
2022/05/03 09:11:46;;;;;;;4.90;1.60;;;32.90;21.10;;;;;;5129840;27;20060;-83
2022/05/03 09:14:12;;;;;;;3.35;1.52;;;33.00;21.10;;;;;;5129506;27;20489;-86
2022/05/03 09:16:50;;;;;;;2.60;1.05;;;32.50;20.90;;;;;;5111259;27;20119;-85
2022/05/03 09:19:24;;;;;;;3.80;1.70;;;32.10;21.70;;;;;;5111715;27;20034;-85
2022/05/03 09:24:55;;;;;;;4.43;2.00;;;30.30;22.80;;;;;;5132340;27;20064;-86
2022/05/03 09:27:24;;;;;;;4.65;1.77;;;29.50;24.00;;;;;;5097482;27;20050;-86
2022/05/03 09:30:07;;;;;;;4.38;1.35;;;29.10;24.40;;;;;;5113747;27;20091;-88
2022/05/03 09:32:44;;;;;;;5.55;1.42;;;28.80;24.80;;;;;;5113926;27;20027;-87
2022/05/03 09:35:35;;;;;;;4.25;1.60;;;28.60;24.70;;;;;;5114054;28;20065;-88
2022/05/03 09:38:03;;;;;;;2.58;1.35;;;28.20;24.90;;;;;;5131879;27;20502;-89
2022/05/03 09:40:42;;;;;;;2.85;1.20;;;27.90;25.70;;;;;;5132639;27;20030;-89
2022/05/03 09:43:08;;;;;;;1.83;1.08;;;27.50;25.10;;;;;;5113592;28;20031;-88
2022/05/03 09:45:35;;;;;;;1.92;0.75;;;26.90;23.50;;;;;;5115725;28;20553;-90
2022/05/03 09:48:02;;;;;;;7.38;1.38;;;26.60;24.10;;;;;;5112969;28;20026;-86
2022/05/03 09:50:38;;;;;;;3.80;1.55;;;26.20;25.10;;;;;;5113916;28;20503;-87
2022/05/03 09:53:17;;;;;;;2.45;1.40;;;26.00;26.30;;;;;;5113509;28;20015;-91
2022/05/03 09:55:45;;;;;;;3.55;1.60;;;26.00;27.10;;;;;;5113927;28;20084;-90
2022/05/03 09:58:12;;;;;;;4.10;1.70;;;26.40;26.80;;;;;;5113934;28;20023;-90
2022/05/03 10:00:43;;;;;;;3.55;1.67;;;26.80;25.30;;;;;;5114990;28;20043;-88
2022/05/03 10:03:10;;;;;;;3.75;1.58;;;27.10;25.80;;;;;;5113116;28;20026;-91
2022/05/03 10:05:42;;;;;;;4.07;1.80;;;27.70;25.30;;;;;;5110874;28;20034;-88
2022/05/03 10:08:11;;;;;;;4.50;1.40;;;28.20;23.00;;;;;;5111713;28;20027;-86
2022/05/03 10:10:40;;;;;;;3.55;1.30;;;28.10;23.80;;;;;;5117175;28;20495;-89
2022/05/03 10:13:05;;;;;;;3.22;1.10;;;27.90;23.90;;;;;;5129708;28;20035;-89
2022/05/03 10:21:10;;;;;;;8.15;1.67;;;28.10;24.50;;;;;;5131968;28;20096;-91
2022/05/03 10:23:35;;;;;;;4.03;1.85;;;28.20;25.00;;;;;;5125513;28;20028;-92
2022/05/03 10:26:08;;;;;;;6.45;1.50;;;28.00;24.40;;;;;;5113264;28;20041;-92
2022/05/03 10:29:08;;;;;;;4.78;1.10;;;27.60;22.90;;;;;;5113509;28;20026;-92
2022/05/03 10:31:55;;;;;;;5.38;1.33;;;27.20;22.80;;;;;;5113699;28;20019;-90
2022/05/03 10:34:42;;;;;;;2.85;1.65;;;26.70;22.50;;;;;;5112833;28;20024;-89
2022/05/03 10:37:16;;;;;;;4.43;1.52;;;26.60;24.20;;;;;;5113760;28;20023;-90
2022/05/03 10:39:49;;;;;;;4.10;1.45;;;26.40;25.80;;;;;;5110587;28;20071;-90
2022/05/03 10:42:16;;;;;;;5.30;1.30;;;26.50;26.40;;;;;;5097507;28;20043;-90
2022/05/03 10:44:52;;;;;;;2.47;1.67;;;26.30;26.20;;;;;;5109548;28;20113;-90
2022/05/03 10:47:20;;;;;;;3.10;1.45;;;26.10;26.20;;;;;;5112300;28;20483;-90
2022/05/03 10:50:11;;;;;;;6.45;1.88;;;25.80;26.40;;;;;;5098400;28;20201;-91
2022/05/03 10:52:37;;;;;;;4.88;1.67;;;25.70;26.80;;;;;;5103513;28;20048;-90
2022/05/03 10:55:07;;;;;;;2.80;1.75;;;25.30;27.40;;;;;;5112767;27;20048;-90
2022/05/03 10:58:11;;;;;;;3.97;1.75;;;25.30;28.00;;;;;;5114027;27;20038;-90
2022/05/03 11:01:18;;;;;;;2.13;1.30;;;25.20;28.20;;;;;;5113775;27;20048;-90
2022/05/03 11:03:57;;;;;;;7.13;1.73;;;25.40;28.90;;;;;;5097166;27;20020;-90
2022/05/03 11:06:26;;;;;;;5.03;1.50;;;25.50;28.40;;;;;;5108356;27;20403;-91
2022/05/03 11:11:39;;;;;;;6.35;1.88;;;25.60;27.80;;;;;;5101533;27;20052;-90
2022/05/03 11:14:24;;;;;;;4.25;1.38;;;25.50;27.70;;;;;;5114253;27;20063;-90
2022/05/03 11:17:12;;;;;;;3.90;1.45;;;25.60;27.70;;;;;;5104839;27;20412;-90
2022/05/03 11:19:52;;;;;;;3.33;1.60;;;25.70;27.70;;;;;;5102717;27;20036;-89
2022/05/03 11:22:47;;;;;;;3.30;1.25;;;25.70;27.80;;;;;;5106571;27;20032;-89
2022/05/03 11:25:13;;;;;;;2.53;1.10;;;25.70;28.20;;;;;;5084468;27;20584;-89
2022/05/03 11:27:39;;;;;;;2.50;1.15;;;25.60;28.20;;;;;;5101998;27;20031;-90
2022/05/03 11:30:09;;;;;;;3.15;1.63;;;25.40;27.50;;;;;;5104667;27;20464;-90
2022/05/03 11:32:37;;;;;;;3.13;1.58;;;25.20;27.70;;;;;;5109683;27;20096;-90
2022/05/03 11:35:07;;;;;;;2.90;1.70;;;25.00;28.40;;;;;;5117089;27;20031;-90
2022/05/03 11:37:36;;;;;;;6.75;1.60;;;24.70;29.90;;;;;;5101738;27;20032;-90
2022/05/03 11:40:11;;;;;;;3.25;1.73;;;24.60;30.10;;;;;;5103898;27;20032;-90
2022/05/03 11:42:38;;;;;;;2.60;1.40;;;24.60;30.50;;;;;;5108015;27;20046;-88
2022/05/03 11:45:06;;;;;;;5.13;1.50;;;24.60;30.00;;;;;;5104216;27;20282;-90
2022/05/03 11:47:35;;;;;;;5.30;1.60;;;24.70;31.00;;;;;;5092820;28;20039;-90
2022/05/03 11:50:02;;;;;;;3.90;1.75;;;24.70;31.20;;;;;;5102840;27;20040;-90
2022/05/03 11:57:56;;;;;;;2.67;1.52;;;24.30;30.40;;;;;;5105969;27;20043;-88
2022/05/03 12:00:22;;;;;;;3.35;1.77;;;24.40;30.50;;;;;;5113810;27;20044;-89
2022/05/03 12:02:48;;;;;;;2.50;1.23;;;24.60;30.50;;;;;;5110257;27;20077;-90
2022/05/03 12:05:19;;;;;;;3.10;1.08;;;24.60;29.20;;;;;;5112045;27;20036;-90
2022/05/03 12:08:01;;;;;;;4.85;1.50;;;24.70;28.50;;;;;;5103434;27;20024;-90
2022/05/03 12:10:34;;;;;;;5.95;1.60;;;24.50;31.20;;;;;;5107534;27;20043;-90
2022/05/03 12:13:12;;;;;;;9.15;1.83;;;24.10;32.30;;;;;;5116024;27;20043;-90
2022/05/03 12:15:57;;;;;;;4.38;1.75;;;23.50;31.60;;;;;;5107306;27;20032;-90
2022/05/03 12:18:41;;;;;;;4.10;2.00;;;22.80;32.60;;;;;;5096758;27;20036;-89
2022/05/03 12:21:16;;;;;;;9.68;1.23;;;22.20;33.70;;;;;;5098812;27;20039;-89
2022/05/03 12:23:45;;;;;;;2.63;1.13;;;21.80;34.80;;;;;;5103955;27;20032;-90
2022/05/03 12:26:18;;;;;;;4.50;1.10;;;21.60;35.80;;;;;;5107724;27;20040;-89
2022/05/03 12:28:55;;;;;;;5.45;1.50;;;21.40;36.70;;;;;;5115199;27;20085;-89
2022/05/03 12:31:23;;;;;;;3.70;1.20;;;21.50;37.50;;;;;;5109379;27;20059;-89
2022/05/03 12:33:57;;;;;;;6.65;1.17;;;21.50;37.50;;;;;;5104400;27;20043;-90
2022/05/03 12:36:44;;;;;;;5.13;1.30;;;21.60;37.10;;;;;;5115132;27;20040;-90
2022/05/03 12:39:21;;;;;;;4.97;1.30;;;21.60;37.20;;;;;;5112416;27;20035;-90
2022/05/03 12:41:55;;;;;;;3.30;1.00;;;21.90;36.80;;;;;;5105309;27;20059;-89
2022/05/03 12:44:22;;;;;;;3.70;1.13;;;21.90;37.10;;;;;;5106235;27;20048;-90
2022/05/03 12:46:50;;;;;;;2.65;1.17;;;21.90;34.30;;;;;;5108430;27;20032;-90
2022/05/03 12:49:16;;;;;;;3.33;1.20;;;22.00;34.50;;;;;;5107927;27;20126;-91
2022/05/03 12:51:44;;;;;;;1.95;1.00;;;22.20;35.10;;;;;;5108357;27;20055;-90
2022/05/03 12:54:11;;;;;;;3.75;1.02;;;22.20;33.80;;;;;;5116642;27;20050;-90
2022/05/03 12:59:22;;;;;;;2.08;1.10;;;22.10;33.20;;;;;;5112065;27;20530;-90
2022/05/03 13:01:50;;;;;;;2.92;1.55;;;22.00;33.90;;;;;;5107661;27;20289;-91
2022/05/03 13:04:17;;;;;;;2.17;1.02;;;21.90;33.70;;;;;;5106475;27;20119;-91
2022/05/03 13:06:43;;;;;;;2.00;1.10;;;21.80;34.30;;;;;;5095226;28;20217;-91
2022/05/03 13:09:09;;;;;;;4.20;1.48;;;21.90;34.40;;;;;;5087865;28;20087;-90
2022/05/03 13:11:35;;;;;;;2.83;1.38;;;21.80;34.20;;;;;;5084314;28;20047;-91
2022/05/03 13:14:01;;;;;;;2.88;1.25;;;21.90;34.80;;;;;;5091934;28;20036;-91
2022/05/03 13:16:29;;;;;;;3.08;1.33;;;21.80;34.80;;;;;;5090585;28;20040;-90
2022/05/03 13:18:55;;;;;;;2.45;1.35;;;21.90;35.70;;;;;;5082201;28;20087;-90
2022/05/03 13:21:22;;;;;;;4.43;1.48;;;21.90;34.00;;;;;;5086848;28;20111;-90
2022/05/03 13:23:48;;;;;;;7.15;1.10;;;21.90;33.00;;;;;;5089451;28;20594;-90
2022/05/03 13:26:14;;;;;;;3.95;1.02;;;21.80;33.20;;;;;;5089625;28;20043;-91
2022/05/03 13:28:40;;;;;;;2.33;1.23;;;21.80;33.00;;;;;;5090175;28;20031;-90
2022/05/03 13:31:05;;;;;;;2.88;1.00;;;21.60;33.20;;;;;;5094898;28;20023;-91
2022/05/03 13:33:31;;;;;;;2.17;1.08;;;21.60;34.20;;;;;;5112076;28;20024;-90
2022/05/03 13:41:25;;;;;;;2.75;0.82;;;21.60;34.50;;;;;;5113222;28;20039;-90
2022/05/03 13:43:50;;;;;;;2.75;1.02;;;21.40;34.70;;;;;;5109621;27;20031;-91
2022/05/03 13:46:17;;;;;;;4.65;1.35;;;21.30;36.60;;;;;;5099062;28;20106;-89
2022/05/03 13:48:43;;;;;;;9.43;1.52;;;21.20;38.00;;;;;;5110955;28;20073;-88
2022/05/03 13:51:09;;;;;;;5.75;1.50;;;21.20;40.50;;;;;;5114237;28;20024;-87
2022/05/03 13:53:36;;;;;;;2.88;1.20;;;21.00;40.10;;;;;;5113276;28;20430;-84
2022/05/03 13:56:01;;;;;;;6.40;1.10;;;20.90;42.40;;;;;;5133144;28;20030;-88